Time;durP1;ratioP1;P1;durP2;ratioP2;P2;SDS_P1;SDS_P2;PMS_P1;PMS_P2;Temp;Humidity;BMP_temperature;BMP_pressure;BME280_temperature;BME280_humidity;BME280_pressure;Samples;Min_cycle;Max_cycle;Signal;HPM_P1;HPM_P2
2023/01/25 00:02:03;;;;;;;16.80;12.77;;;;;;;-0.53;100.00;98619.16;5025253;28;20202;-64
2023/01/25 00:04:31;;;;;;;17.77;14.13;;;;;;;-0.55;100.00;98621.00;5007922;28;20226;-66
2023/01/25 00:06:59;;;;;;;17.87;14.40;;;;;;;-0.51;100.00;98619.91;5009844;28;20212;-63
2023/01/25 00:09:27;;;;;;;17.33;13.43;;;;;;;-0.53;100.00;98623.53;5028838;28;20224;-64
2023/01/25 00:11:57;;;;;;;15.33;13.63;;;;;;;-0.51;100.00;98616.50;5029452;28;20286;-65
2023/01/25 00:14:25;;;;;;;18.47;14.00;;;;;;;-0.70;100.00;98607.00;4992774;28;20231;-64
2023/01/25 00:16:55;;;;;;;17.90;15.00;;;;;;;-0.65;100.00;98618.00;5032595;28;20214;-65
2023/01/25 00:19:22;;;;;;;16.73;14.57;;;;;;;-0.66;100.00;98623.31;5027947;28;20293;-63
2023/01/25 00:21:50;;;;;;;18.27;14.93;;;;;;;-0.70;100.00;98619.19;5030388;28;20242;-65
2023/01/25 00:24:21;;;;;;;17.37;14.93;;;;;;;-0.64;100.00;98626.69;5005833;28;20314;-62
2023/01/25 00:26:49;;;;;;;19.70;15.30;;;;;;;-0.64;100.00;98618.88;5034620;28;20615;-64
2023/01/25 00:29:18;;;;;;;24.20;18.83;;;;;;;-0.63;100.00;98617.94;5005669;28;20348;-63
2023/01/25 00:31:54;;;;;;;19.23;16.63;;;;;;;-0.66;100.00;98607.69;5014379;28;20281;-65
2023/01/25 00:34:47;;;;;;;18.13;15.77;;;;;;;-0.68;100.00;98610.38;5027309;28;20861;-63
2023/01/25 00:37:21;;;;;;;19.57;15.43;;;;;;;-0.70;100.00;98608.78;5022478;28;20238;-62
2023/01/25 00:39:49;;;;;;;21.63;16.40;;;;;;;-0.78;100.00;98604.78;5014306;28;20332;-63
2023/01/25 00:42:18;;;;;;;20.83;15.80;;;;;;;-0.77;100.00;98601.25;5033424;28;20231;-63
2023/01/25 00:44:46;;;;;;;23.07;17.60;;;;;;;-0.78;100.00;98601.34;5034163;28;20753;-64
2023/01/25 00:47:14;;;;;;;20.97;16.33;;;;;;;-0.88;100.00;98594.00;4984825;28;20746;-63
2023/01/25 00:49:43;;;;;;;22.27;17.50;;;;;;;-0.84;100.00;98599.88;5036046;28;20396;-64
2023/01/25 00:52:13;;;;;;;22.23;17.17;;;;;;;-0.86;100.00;98595.69;5033959;28;20616;-63
2023/01/25 00:54:41;;;;;;;21.03;17.13;;;;;;;-0.88;100.00;98594.00;5015863;28;20582;-65
2023/01/25 00:57:09;;;;;;;21.10;17.57;;;;;;;-0.93;100.00;98598.59;5032500;28;20208;-64
2023/01/25 00:59:37;;;;;;;23.57;18.50;;;;;;;-0.96;100.00;98588.31;5033439;28;20306;-65
2023/01/25 01:02:04;;;;;;;22.07;16.70;;;;;;;-0.95;100.00;98602.19;4984665;28;20216;-65
2023/01/25 01:04:32;;;;;;;21.90;16.57;;;;;;;-0.96;100.00;98598.72;5029172;28;20444;-65
2023/01/25 01:07:00;;;;;;;24.13;17.77;;;;;;;-0.93;100.00;98598.59;5033287;28;20203;-64
2023/01/25 01:09:29;;;;;;;22.53;18.10;;;;;;;-0.93;100.00;98601.19;5010004;28;20395;-65
2023/01/25 01:11:57;;;;;;;22.07;16.37;;;;;;;-1.06;100.00;98600.97;5031526;28;20206;-62
2023/01/25 01:14:24;;;;;;;26.73;18.30;;;;;;;-1.06;100.00;98603.56;5029493;28;20315;-63
2023/01/25 01:16:52;;;;;;;20.90;17.17;;;;;;;-1.05;100.00;98607.84;4988501;28;20235;-65
2023/01/25 01:19:20;;;;;;;24.00;18.20;;;;;;;-1.06;100.00;98602.72;5036562;28;20219;-63
2023/01/25 01:21:47;;;;;;;25.70;17.37;;;;;;;-1.04;100.00;98603.47;5030645;28;20227;-65
2023/01/25 01:24:16;;;;;;;26.53;18.97;;;;;;;-1.03;100.00;98612.97;5024940;28;20225;-64
2023/01/25 01:26:46;;;;;;;22.17;16.90;;;;;;;-1.01;100.00;98608.53;5000216;28;20306;-63
2023/01/25 01:29:13;;;;;;;21.13;17.00;;;;;;;-1.02;100.00;98607.69;5033341;28;20228;-65
2023/01/25 01:31:41;;;;;;;21.30;17.03;;;;;;;-1.01;100.00;98608.53;4974047;28;20201;-63
2023/01/25 01:34:12;;;;;;;22.93;16.43;;;;;;;-1.06;100.00;98598.38;5025198;28;20279;-65
2023/01/25 01:36:40;;;;;;;21.87;16.50;;;;;;;-0.97;100.00;98604.84;5026049;28;21098;-63
2023/01/25 01:39:08;;;;;;;23.33;19.13;;;;;;;-0.97;100.00;98604.03;5033721;28;20310;-66
2023/01/25 01:41:36;;;;;;;22.03;16.07;;;;;;;-0.98;100.00;98603.16;5013457;28;20443;-63
2023/01/25 01:44:06;;;;;;;19.73;16.17;;;;;;;-1.05;100.00;98612.19;5031161;28;20216;-62
2023/01/25 01:46:36;;;;;;;23.37;16.73;;;;;;;-1.15;100.00;98597.97;5013175;28;20591;-63
2023/01/25 01:49:06;;;;;;;21.63;17.27;;;;;;;-1.09;100.00;98606.31;5012057;28;20439;-63
2023/01/25 01:51:43;;;;;;;22.53;15.27;;;;;;;-1.08;100.00;98604.53;5031447;28;20303;-63
2023/01/25 01:54:14;;;;;;;19.10;15.23;;;;;;;-1.11;100.00;98609.91;5032715;28;20208;-64
2023/01/25 01:56:46;;;;;;;18.27;14.43;;;;;;;-1.21;100.00;98604.28;5011209;28;20285;-62
2023/01/25 01:59:16;;;;;;;19.10;15.23;;;;;;;-1.22;100.00;98605.22;5030710;28;20234;-66
2023/01/25 02:01:44;;;;;;;19.67;15.67;;;;;;;-1.27;100.00;98599.41;5031916;28;20922;-62
2023/01/25 02:04:13;;;;;;;16.67;13.27;;;;;;;-1.28;100.00;98608.97;4989937;28;20672;-65
2023/01/25 02:06:45;;;;;;;16.40;13.93;;;;;;;-1.26;100.00;98604.53;5028769;28;20295;-62
2023/01/25 02:09:16;;;;;;;14.37;12.80;;;;;;;-1.26;100.00;98601.09;5032549;28;20497;-62
2023/01/25 02:11:44;;;;;;;16.07;13.77;;;;;;;-1.25;100.00;98605.38;5012697;28;20238;-62
2023/01/25 02:14:12;;;;;;;17.13;13.40;;;;;;;-1.21;100.00;98596.50;5031353;28;20679;-65
2023/01/25 02:16:41;;;;;;;19.83;15.30;;;;;;;-1.25;100.00;98597.56;5028642;28;20290;-63
2023/01/25 02:19:13;;;;;;;18.93;14.13;;;;;;;-1.28;100.00;98600.31;4989363;28;20588;-65
2023/01/25 02:21:44;;;;;;;19.07;13.90;;;;;;;-1.32;100.00;98605.66;5028276;28;20220;-62
2023/01/25 02:24:17;;;;;;;16.20;12.70;;;;;;;-1.32;100.00;98604.84;5032040;28;20488;-64
2023/01/25 02:26:46;;;;;;;14.63;13.10;;;;;;;-1.34;100.00;98601.44;5029538;28;20211;-62
2023/01/25 02:29:14;;;;;;;14.47;11.83;;;;;;;-1.36;100.00;98608.47;5012464;28;20235;-65
2023/01/25 02:31:44;;;;;;;14.90;11.77;;;;;;;-1.37;100.00;98606.78;5031717;28;20294;-63
2023/01/25 02:34:12;;;;;;;15.30;12.37;;;;;;;-1.48;100.00;98595.16;5033383;28;20431;-65
2023/01/25 02:36:39;;;;;;;14.47;12.10;;;;;;;-1.41;100.00;98606.13;4983549;28;20749;-62
2023/01/25 02:39:09;;;;;;;12.40;11.17;;;;;;;-1.39;100.00;98603.44;5031473;28;20295;-64
2023/01/25 02:41:38;;;;;;;13.87;12.27;;;;;;;-1.46;100.00;98602.91;5028833;28;20228;-62
2023/01/25 02:44:09;;;;;;;18.80;13.60;;;;;;;-1.46;100.00;98608.09;5016878;28;20213;-62
2023/01/25 02:46:38;;;;;;;16.47;13.30;;;;;;;-1.42;100.00;98600.97;5030339;28;20210;-62
2023/01/25 02:49:08;;;;;;;17.97;13.83;;;;;;;-1.44;100.00;98606.28;5031385;28;20251;-65
2023/01/25 02:51:37;;;;;;;17.13;12.87;;;;;;;-1.41;100.00;98602.66;4981880;28;20661;-62
2023/01/25 02:54:07;;;;;;;13.77;11.73;;;;;;;-1.43;100.00;98596.69;5033695;28;20208;-64
2023/01/25 02:56:35;;;;;;;13.53;11.17;;;;;;;-1.42;100.00;98598.38;5033442;28;20222;-61
2023/01/25 02:59:04;;;;;;;14.63;11.73;;;;;;;-1.46;100.00;98597.69;5011564;28;20566;-62
2023/01/25 03:01:34;;;;;;;13.23;11.83;;;;;;;-1.47;100.00;98606.41;5028799;28;20207;-63
2023/01/25 03:04:02;;;;;;;14.17;11.83;;;;;;;-1.50;100.00;98596.16;5027633;28;20238;-64
2023/01/25 03:06:29;;;;;;;13.27;11.70;;;;;;;-1.51;100.00;98597.06;4986146;28;20501;-61
2023/01/25 03:08:57;;;;;;;13.97;11.93;;;;;;;-1.52;100.00;98596.22;5029016;28;20417;-65
2023/01/25 03:11:25;;;;;;;13.00;11.53;;;;;;;-1.53;100.00;98591.94;5032002;28;20356;-65
2023/01/25 03:13:53;;;;;;;13.90;10.93;;;;;;;-1.54;100.00;98594.59;5012572;28;20210;-65
2023/01/25 03:16:21;;;;;;;15.17;11.30;;;;;;;-1.60;100.00;98583.56;5026141;28;20295;-64
2023/01/25 03:18:53;;;;;;;14.03;11.23;;;;;;;-1.54;100.00;98585.06;5026729;28;20219;-64
2023/01/25 03:21:22;;;;;;;13.77;11.50;;;;;;;-1.54;100.00;98587.66;5021772;28;20677;-64
2023/01/25 03:23:55;;;;;;;11.97;10.77;;;;;;;-1.49;100.00;98582.25;4983365;28;20750;-65
2023/01/25 03:26:23;;;;;;;14.00;10.83;;;;;;;-1.48;100.00;98581.34;5027359;28;20222;-65
2023/01/25 03:28:51;;;;;;;13.70;11.20;;;;;;;-1.47;100.00;98567.41;5009805;28;20509;-65
2023/01/25 03:31:19;;;;;;;16.13;12.47;;;;;;;-1.52;100.00;98570.22;5031478;28;20308;-64
2023/01/25 03:33:47;;;;;;;12.23;10.93;;;;;;;-1.50;100.00;98578.78;5028645;28;20204;-63
2023/01/25 03:36:16;;;;;;;16.77;11.67;;;;;;;-1.55;100.00;98580.78;5030238;28;20234;-65
2023/01/25 03:38:44;;;;;;;14.07;11.50;;;;;;;-1.55;100.00;98575.56;4984342;28;20597;-61
2023/01/25 03:41:13;;;;;;;13.17;11.83;;;;;;;-1.54;100.00;98573.81;5031686;28;20235;-64
2023/01/25 03:43:41;;;;;;;16.00;11.60;;;;;;;-1.62;100.00;98563.78;5023301;28;20255;-62
2023/01/25 03:46:09;;;;;;;16.33;11.73;;;;;;;-1.66;100.00;98554.47;5009958;28;20235;-63
2023/01/25 03:48:37;;;;;;;14.67;11.07;;;;;;;-1.54;100.00;98563.41;5023381;28;20227;-63
2023/01/25 03:51:04;;;;;;;13.43;11.60;;;;;;;-1.56;100.00;98573.03;5005988;28;22927;-62
2023/01/25 03:53:33;;;;;;;17.07;12.83;;;;;;;-1.59;100.00;98568.84;4981344;28;20210;-61
2023/01/25 03:56:03;;;;;;;15.47;11.97;;;;;;;-1.60;100.00;98564.56;5028630;28;20308;-63
2023/01/25 03:58:31;;;;;;;12.83;11.13;;;;;;;-1.55;100.00;98554.78;5027099;28;20226;-63
2023/01/25 04:01:00;;;;;;;15.50;13.90;;;;;;;-1.55;100.00;98556.53;4994334;28;20227;-64
2023/01/25 04:03:29;;;;;;;16.67;12.97;;;;;;;-1.55;100.00;98553.91;5026924;28;20293;-64
2023/01/25 04:05:58;;;;;;;15.17;13.53;;;;;;;-1.53;100.00;98544.28;5008773;28;20207;-64
2023/01/25 04:08:26;;;;;;;14.87;13.10;;;;;;;-1.53;100.00;98545.16;4980419;28;20231;-61
2023/01/25 04:10:57;;;;;;;16.57;13.80;;;;;;;-1.49;100.00;98546.69;5009803;28;20208;-63
2023/01/25 04:13:25;;;;;;;15.70;12.03;;;;;;;-1.53;100.00;98547.75;5026405;28;20195;-64
2023/01/25 04:15:53;;;;;;;15.37;13.20;;;;;;;-1.53;100.00;98537.34;5006772;28;20508;-61
2023/01/25 04:18:21;;;;;;;13.17;11.10;;;;;;;-1.50;100.00;98536.38;5028157;28;20215;-62
2023/01/25 04:20:53;;;;;;;14.57;12.47;;;;;;;-1.50;100.00;98536.38;5008239;28;20199;-60
2023/01/25 04:23:21;;;;;;;16.43;12.27;;;;;;;-1.50;100.00;98529.41;4977936;28;20373;-62
2023/01/25 04:25:52;;;;;;;16.37;13.63;;;;;;;-1.46;100.00;98519.69;5022613;28;20201;-59
2023/01/25 04:28:22;;;;;;;14.30;12.60;;;;;;;-1.47;100.00;98515.41;5025062;28;20228;-63
2023/01/25 04:30:49;;;;;;;16.93;13.10;;;;;;;-1.48;100.00;98516.34;5006892;28;20427;-63
2023/01/25 04:33:17;;;;;;;14.17;12.60;;;;;;;-1.48;100.00;98511.97;5028545;28;20207;-64
2023/01/25 04:35:45;;;;;;;13.33;11.97;;;;;;;-1.47;100.00;98502.41;5007977;28;20694;-60
2023/01/25 04:38:13;;;;;;;16.00;12.40;;;;;;;-1.46;100.00;98488.50;5024016;28;20228;-61
2023/01/25 04:40:41;;;;;;;14.80;12.93;;;;;;;-1.55;100.00;98489.78;4978868;28;20221;-62
2023/01/25 04:43:09;;;;;;;15.10;13.50;;;;;;;-1.52;100.00;98494.84;5028010;28;20223;-59
2023/01/25 04:45:39;;;;;;;14.80;12.23;;;;;;;-1.49;100.00;98494.69;5012965;28;20441;-58
2023/01/25 04:48:08;;;;;;;17.10;12.93;;;;;;;-1.45;100.00;98492.78;5021895;28;20203;-62
2023/01/25 04:50:36;;;;;;;15.10;13.10;;;;;;;-1.42;100.00;98489.19;5017675;28;20195;-63
2023/01/25 04:53:04;;;;;;;14.03;11.27;;;;;;;-1.46;100.00;98489.34;5019045;28;20313;-64
2023/01/25 04:55:32;;;;;;;15.17;11.80;;;;;;;-1.43;100.00;98485.75;4971795;28;20223;-61
2023/01/25 04:58:00;;;;;;;13.90;12.50;;;;;;;-1.40;100.00;98489.94;5025556;28;20859;-65
2023/01/25 05:00:29;;;;;;;13.27;11.60;;;;;;;-1.43;100.00;98487.50;5027280;28;20200;-64
2023/01/25 05:02:58;;;;;;;14.47;11.87;;;;;;;-1.51;100.00;98482.69;5008574;28;20255;-64
2023/01/25 05:05:25;;;;;;;14.50;12.03;;;;;;;-1.49;100.00;98478.25;5031930;28;20271;-64
2023/01/25 05:07:53;;;;;;;13.33;11.53;;;;;;;-1.48;100.00;98477.34;5010979;28;20215;-63
2023/01/25 05:10:21;;;;;;;13.30;11.53;;;;;;;-1.48;100.00;98470.38;5029571;28;20227;-64
2023/01/25 05:12:48;;;;;;;14.77;12.40;;;;;;;-1.49;100.00;98475.66;4980553;28;20754;-63
2023/01/25 05:15:16;;;;;;;13.43;11.47;;;;;;;-1.44;100.00;98472.81;5030553;28;20291;-62
2023/01/25 05:17:44;;;;;;;14.67;11.87;;;;;;;-1.52;100.00;98473.19;5008077;28;20432;-62
2023/01/25 05:20:13;;;;;;;12.97;11.43;;;;;;;-1.51;100.00;98473.13;5032973;28;20334;-65
2023/01/25 05:22:41;;;;;;;13.57;11.57;;;;;;;-1.52;100.00;98474.03;5009107;28;20215;-62
2023/01/25 05:26:59;;;;;;;14.23;11.87;;;;;;;-1.51;100.00;98472.28;5032229;28;20723;-63
2023/01/25 05:27:55;;;;;;;15.47;10.70;;;;;;;-1.52;100.00;98467.97;4988208;28;20507;-64
2023/01/25 05:30:23;;;;;;;13.50;12.07;;;;;;;-1.49;100.00;98467.88;5033318;28;20298;-65
2023/01/25 05:32:51;;;;;;;13.53;11.47;;;;;;;-1.53;100.00;98469.75;5007726;28;21143;-63
2023/01/25 05:35:20;;;;;;;13.33;10.63;;;;;;;-1.50;100.00;98467.00;5031253;28;20204;-63
2023/01/25 05:37:47;;;;;;;12.73;11.23;;;;;;;-1.54;100.00;98470.69;5012391;28;20298;-64
2023/01/25 05:40:15;;;;;;;12.50;11.20;;;;;;;-1.52;100.00;98471.44;5033693;28;20234;-62
2023/01/25 05:42:44;;;;;;;12.33;9.87;;;;;;;-1.51;100.00;98459.31;5000166;28;20207;-62
2023/01/25 05:45:12;;;;;;;14.93;10.70;;;;;;;-1.54;100.00;98464.63;5030503;28;20196;-63
2023/01/25 05:47:39;;;;;;;14.20;10.30;;;;;;;-1.53;100.00;98467.16;5005397;28;21040;-65
2023/01/25 05:50:08;;;;;;;15.00;11.97;;;;;;;-1.51;100.00;98457.53;5017840;28;20272;-65
2023/01/25 05:52:37;;;;;;;13.67;11.23;;;;;;;-1.51;100.00;98452.31;5013440;28;20355;-63
2023/01/25 05:55:05;;;;;;;12.47;11.20;;;;;;;-1.52;100.00;98460.19;5033256;28;20302;-64
2023/01/25 05:57:34;;;;;;;11.77;10.57;;;;;;;-1.50;100.00;98460.97;5029440;28;20235;-65
2023/01/25 06:00:02;;;;;;;13.63;11.33;;;;;;;-1.45;100.00;98459.00;4988529;28;20757;-66
2023/01/25 06:02:31;;;;;;;12.97;10.80;;;;;;;-1.55;100.00;98460.34;5028555;28;20207;-66
2023/01/25 06:04:58;;;;;;;14.73;11.07;;;;;;;-1.55;100.00;98462.94;5012227;28;20235;-65
2023/01/25 06:07:26;;;;;;;13.50;11.00;;;;;;;-1.54;100.00;98457.69;5028722;28;20207;-61
2023/01/25 06:09:55;;;;;;;14.67;13.10;;;;;;;-1.53;100.00;98461.97;5012594;28;20416;-62
2023/01/25 06:12:23;;;;;;;14.70;12.70;;;;;;;-1.53;100.00;98461.97;5023739;28;20214;-62
2023/01/25 06:14:51;;;;;;;13.70;11.50;;;;;;;-1.53;100.00;98464.56;4987848;28;20398;-62
2023/01/25 06:17:18;;;;;;;14.90;12.70;;;;;;;-1.53;100.00;98461.09;5023351;28;20208;-62
2023/01/25 06:19:46;;;;;;;14.33;11.63;;;;;;;-1.52;100.00;98473.19;5012205;28;20622;-62
2023/01/25 06:22:13;;;;;;;11.80;10.60;;;;;;;-1.52;100.00;98467.97;5022165;28;20497;-62
2023/01/25 06:24:41;;;;;;;15.13;10.87;;;;;;;-1.52;100.00;98471.44;5014505;28;20318;-63
2023/01/25 06:27:11;;;;;;;12.80;11.50;;;;;;;-1.51;100.00;98469.69;5030760;28;20801;-62
2023/01/25 06:29:39;;;;;;;13.63;11.53;;;;;;;-1.50;100.00;98471.38;4984276;28;20362;-63
2023/01/25 06:32:06;;;;;;;12.00;10.23;;;;;;;-1.52;100.00;98468.84;5020621;28;20917;-62
2023/01/25 06:34:34;;;;;;;13.52;11.82;;;;;;;-1.51;100.00;98467.91;5012774;28;20858;-63
2023/01/25 06:37:02;;;;;;;13.03;10.90;;;;;;;-1.52;100.00;98465.38;5027528;28;20659;-63
2023/01/25 06:39:29;;;;;;;13.07;11.40;;;;;;;-1.58;100.00;98463.09;5011537;28;20239;-62
2023/01/25 06:41:57;;;;;;;13.85;12.05;;;;;;;-1.51;100.00;98470.53;5029476;28;20662;-63
2023/01/25 06:44:26;;;;;;;11.97;10.77;;;;;;;-1.51;100.00;98465.31;4987968;28;20228;-63
2023/01/25 06:46:54;;;;;;;13.50;10.30;;;;;;;-1.48;100.00;98469.53;5011642;28;20519;-64
2023/01/25 06:49:22;;;;;;;11.93;10.50;;;;;;;-1.52;100.00;98457.59;5027518;28;20402;-63
2023/01/25 06:51:49;;;;;;;12.00;10.67;;;;;;;-1.51;100.00;98460.13;5007568;28;20276;-63
2023/01/25 06:54:17;;;;;;;13.63;11.83;;;;;;;-1.52;100.00;98454.97;5019098;28;20664;-62
2023/01/25 06:56:45;;;;;;;15.03;12.00;;;;;;;-1.54;100.00;98460.28;5029459;28;20200;-63
2023/01/25 06:59:14;;;;;;;14.83;11.93;;;;;;;-1.54;100.00;98451.63;5032618;28;20695;-62
2023/01/25 07:01:44;;;;;;;14.10;11.70;;;;;;;-1.50;100.00;98458.38;4975174;28;21513;-64
2023/01/25 07:04:11;;;;;;;15.80;13.40;;;;;;;-1.50;100.00;98461.81;5034629;28;20272;-62
2023/01/25 07:06:39;;;;;;;13.93;11.20;;;;;;;-1.54;100.00;98457.69;5006909;28;20469;-63
2023/01/25 07:09:10;;;;;;;12.97;11.60;;;;;;;-1.49;100.00;98462.66;5018604;28;21321;-62
2023/01/25 07:11:37;;;;;;;16.63;13.27;;;;;;;-1.47;100.00;98461.66;5030436;28;20208;-63
2023/01/25 07:14:06;;;;;;;14.80;12.67;;;;;;;-1.47;100.00;98459.06;5031195;28;20276;-64
2023/01/25 07:16:37;;;;;;;14.13;11.10;;;;;;;-1.48;100.00;98454.78;4987499;28;20225;-63
2023/01/25 07:19:07;;;;;;;13.73;12.33;;;;;;;-1.42;100.00;98460.56;5021878;28;20331;-64
2023/01/25 07:21:35;;;;;;;22.27;19.87;;;;;;;-1.41;100.00;98457.06;5011517;28;20218;-63
2023/01/25 07:24:04;;;;;;;114.27;79.80;;;;;;;-1.44;100.00;98459.81;5031966;28;20349;-63
2023/01/25 07:26:32;;;;;;;28.17;22.47;;;;;;;-1.47;100.00;98450.44;5021188;28;20625;-63
2023/01/25 07:29:00;;;;;;;45.03;32.77;;;;;;;-1.46;100.00;98452.94;5027595;28;20216;-62
2023/01/25 07:31:28;;;;;;;30.13;24.27;;;;;;;-1.52;100.00;98436.78;5025813;28;20701;-63
2023/01/25 07:33:58;;;;;;;51.37;41.47;;;;;;;-1.44;100.00;98445.06;4980212;28;20332;-63
2023/01/25 07:36:27;;;;;;;22.80;19.73;;;;;;;-1.41;100.00;98449.25;5030466;28;20211;-63
2023/01/25 07:38:55;;;;;;;27.80;23.00;;;;;;;-1.38;100.00;98443.91;5015657;28;20235;-63
2023/01/25 07:41:24;;;;;;;38.60;31.37;;;;;;;-1.30;100.00;98452.19;5018146;28;20296;-63
2023/01/25 07:43:52;;;;;;;42.53;31.97;;;;;;;-1.31;100.00;98455.69;5030346;28;20486;-64
2023/01/25 07:46:20;;;;;;;13.03;11.73;;;;;;;-1.27;100.00;98436.41;5026404;28;20219;-63
2023/01/25 07:48:49;;;;;;;12.20;10.83;;;;;;;-1.28;100.00;98437.34;4964394;28;20223;-62
2023/01/25 07:51:25;;;;;;;12.10;10.27;;;;;;;-1.25;100.00;98450.19;5030525;28;20605;-63
2023/01/25 07:53:56;;;;;;;11.67;10.57;;;;;;;-1.24;100.00;98440.59;5008596;28;20814;-63
2023/01/25 07:56:25;;;;;;;13.40;11.67;;;;;;;-1.22;100.00;98450.03;5016229;28;20204;-63
2023/01/25 07:58:53;;;;;;;10.80;8.90;;;;;;;-1.31;100.00;98446.13;5025924;28;20362;-63
2023/01/25 08:01:22;;;;;;;11.60;9.83;;;;;;;-1.27;100.00;98451.16;5033714;28;20667;-63
2023/01/25 08:03:51;;;;;;;14.07;12.57;;;;;;;-1.21;100.00;98443.91;4971734;28;20302;-62
2023/01/25 08:06:26;;;;;;;13.03;11.60;;;;;;;-1.24;100.00;98449.25;5029053;28;20579;-62
2023/01/25 08:08:55;;;;;;;13.90;11.60;;;;;;;-1.22;100.00;98449.16;5010183;28;20430;-64
2023/01/25 08:11:24;;;;;;;11.77;10.20;;;;;;;-1.23;100.00;98447.47;5010826;28;20227;-63
2023/01/25 08:13:52;;;;;;;10.60;9.53;;;;;;;-1.23;100.00;98440.53;5031238;28;20487;-63
2023/01/25 08:16:21;;;;;;;11.93;10.73;;;;;;;-1.28;100.00;98437.34;5026187;28;20224;-63
2023/01/25 08:18:50;;;;;;;11.57;10.43;;;;;;;-1.27;100.00;98445.97;4982488;28;20437;-64
2023/01/25 08:21:18;;;;;;;13.03;11.70;;;;;;;-1.23;100.00;98443.13;5032308;28;20313;-63
2023/01/25 08:23:46;;;;;;;11.20;9.53;;;;;;;-1.19;100.00;98438.59;5007516;28;20704;-64
2023/01/25 08:26:16;;;;;;;11.27;10.13;;;;;;;-1.27;100.00;98438.16;5034118;28;20285;-65
2023/01/25 08:28:44;;;;;;;11.33;10.30;;;;;;;-1.21;100.00;98443.91;5014520;28;20297;-63
2023/01/25 08:31:13;;;;;;;11.27;9.60;;;;;;;-1.20;100.00;98447.31;5026707;28;20298;-64
2023/01/25 08:33:43;;;;;;;11.00;9.80;;;;;;;-1.24;100.00;98446.66;5030808;28;20311;-63
2023/01/25 08:36:11;;;;;;;10.67;9.67;;;;;;;-1.21;100.00;98443.91;4989424;28;20219;-63
2023/01/25 08:38:39;;;;;;;10.57;9.23;;;;;;;-1.22;100.00;98443.97;5014996;28;20303;-65
2023/01/25 08:41:08;;;;;;;12.63;10.13;;;;;;;-1.17;100.00;98439.38;5024990;28;20273;-63
2023/01/25 08:43:37;;;;;;;10.57;9.57;;;;;;;-1.15;100.00;98436.69;5013533;28;20211;-63
2023/01/25 08:46:06;;;;;;;11.50;10.30;;;;;;;-1.07;100.00;98438.00;5031226;28;20222;-64
2023/01/25 08:48:33;;;;;;;12.27;11.07;;;;;;;-1.09;100.00;98438.97;5029816;28;20229;-63
2023/01/25 08:51:01;;;;;;;13.33;12.07;;;;;;;-1.11;100.00;98446.88;4986123;28;20804;-64
2023/01/25 08:53:30;;;;;;;13.80;11.57;;;;;;;-1.08;100.00;98443.25;5028402;28;20211;-62
2023/01/25 08:56:02;;;;;;;11.13;10.03;;;;;;;-1.18;100.00;98435.09;5008471;28;20825;-64
2023/01/25 08:58:30;;;;;;;11.10;9.97;;;;;;;-1.19;100.00;98433.41;5008810;28;20231;-64
2023/01/25 09:01:03;;;;;;;12.63;11.33;;;;;;;-1.16;100.00;98430.63;5032329;28;20265;-63
2023/01/25 09:03:31;;;;;;;12.87;11.60;;;;;;;-1.10;100.00;98429.50;5031057;28;20493;-63
2023/01/25 09:05:59;;;;;;;11.53;10.40;;;;;;;-1.19;100.00;98434.25;4990427;28;21570;-64
2023/01/25 09:08:26;;;;;;;12.10;10.80;;;;;;;-1.17;100.00;98426.34;5027877;28;20314;-63
2023/01/25 09:10:54;;;;;;;12.43;11.13;;;;;;;-1.16;100.00;98422.84;5012038;28;20929;-63
2023/01/25 09:13:21;;;;;;;12.83;11.53;;;;;;;-1.22;100.00;98416.22;5017169;28;20226;-63
2023/01/25 09:15:49;;;;;;;12.37;11.03;;;;;;;-1.27;100.00;98414.75;5028285;28;20206;-63
2023/01/25 09:18:18;;;;;;;13.27;11.50;;;;;;;-1.20;100.00;98414.38;5035342;28;20256;-63
2023/01/25 09:20:46;;;;;;;12.90;11.20;;;;;;;-1.09;100.00;98418.16;5027418;28;20832;-63
2023/01/25 09:23:13;;;;;;;12.67;11.37;;;;;;;-1.12;100.00;98410.53;4993764;28;20675;-63
2023/01/25 09:25:41;;;;;;;14.43;12.77;;;;;;;-1.19;100.00;98403.03;5018272;28;20804;-64
2023/01/25 09:28:10;;;;;;;14.53;11.67;;;;;;;-1.08;100.00;98404.22;5031188;28;20202;-64
2023/01/25 09:30:38;;;;;;;13.73;12.33;;;;;;;-1.10;100.00;98409.53;5012633;28;20224;-64
2023/01/25 09:33:18;;;;;;;12.40;11.10;;;;;;;-1.09;100.00;98413.81;5033637;28;20211;-64
2023/01/25 09:35:49;;;;;;;13.40;11.77;;;;;;;-1.05;100.00;98409.28;5031287;28;20447;-63
2023/01/25 09:38:16;;;;;;;13.17;11.87;;;;;;;-1.12;100.00;98407.91;4992480;28;20762;-64
2023/01/25 09:40:54;;;;;;;12.87;11.57;;;;;;;-1.09;100.00;98411.22;5033555;28;20204;-63
2023/01/25 09:43:32;;;;;;;13.90;11.90;;;;;;;-1.18;100.00;98398.66;5014775;28;20207;-61
2023/01/25 09:46:01;;;;;;;13.97;11.97;;;;;;;-1.12;100.00;98403.56;5017513;28;20326;-64
2023/01/25 09:48:37;;;;;;;13.47;11.17;;;;;;;-1.08;100.00;98409.44;5033845;28;20224;-63
2023/01/25 09:51:18;;;;;;;12.50;11.13;;;;;;;-1.09;100.00;98400.81;5031733;28;20388;-64
2023/01/25 09:53:49;;;;;;;13.67;12.27;;;;;;;-1.01;100.00;98397.78;4987318;28;20563;-62
2023/01/25 09:56:22;;;;;;;12.80;11.50;;;;;;;-1.07;100.00;98385.97;5035815;28;20226;-60
2023/01/25 09:58:51;;;;;;;13.13;11.83;;;;;;;-1.04;100.00;98390.16;5007116;28;20314;-61
2023/01/25 10:01:27;;;;;;;14.40;12.47;;;;;;;-0.97;100.00;98393.28;5014253;28;20211;-61
2023/01/25 10:04:12;;;;;;;12.93;11.53;;;;;;;-1.06;100.00;98386.78;5029147;28;20400;-62
2023/01/25 10:06:41;;;;;;;14.37;12.87;;;;;;;-1.08;100.00;98383.44;5027666;28;20242;-62
2023/01/25 10:09:30;;;;;;;13.30;11.90;;;;;;;-1.04;100.00;98382.34;4992970;28;20634;-62
2023/01/25 10:11:59;;;;;;;15.60;13.10;;;;;;;-0.99;100.00;98377.72;5031771;28;20199;-62
2023/01/25 10:14:27;;;;;;;14.67;12.87;;;;;;;-0.94;100.00;98370.53;5016339;28;20219;-61
2023/01/25 10:17:06;;;;;;;27.40;14.63;;;;;;;-0.95;100.00;98374.03;5008545;28;20824;-62
2023/01/25 10:19:49;;;;;;;14.03;12.53;;;;;;;-0.95;100.00;98368.84;5032912;28;20254;-61
2023/01/25 10:22:20;;;;;;;13.07;11.67;;;;;;;-0.81;100.00;98365.50;5028698;28;20207;-62
2023/01/25 10:25:10;;;;;;;15.43;13.83;;;;;;;-0.78;100.00;98360.13;4988072;28;20231;-63
2023/01/25 10:27:41;;;;;;;20.47;16.83;;;;;;;-0.91;100.00;98359.97;5030152;28;20227;-62
2023/01/25 10:30:20;;;;;;;12.73;11.27;;;;;;;-0.79;100.00;98366.25;5011753;28;20322;-62
2023/01/25 10:32:51;;;;;;;11.90;10.37;;;;;;;-0.85;100.00;98350.97;5009903;28;20195;-62
2023/01/25 10:35:28;;;;;;;12.33;10.63;;;;;;;-0.92;100.00;98347.88;5028728;28;20258;-62
2023/01/25 10:38:05;;;;;;;13.30;10.73;;;;;;;-0.80;100.00;98332.53;5029092;28;20311;-62
2023/01/25 10:40:40;;;;;;;13.53;10.77;;;;;;;-0.87;100.00;98324.19;5018812;28;20242;-63
2023/01/25 10:43:14;;;;;;;9.83;8.83;;;;;;;-0.89;100.00;98332.09;5015777;28;20215;-63
2023/01/25 10:45:43;;;;;;;9.67;8.80;;;;;;;-0.85;100.00;98330.16;5008039;28;20222;-63
2023/01/25 10:48:15;;;;;;;11.57;10.33;;;;;;;-0.86;100.00;98323.28;5017306;28;20254;-63
2023/01/25 10:50:47;;;;;;;11.70;10.50;;;;;;;-0.75;100.00;98322.69;5027656;28;20611;-61
2023/01/25 10:53:25;;;;;;;10.53;8.70;;;;;;;-0.92;100.00;98305.41;5029439;28;20210;-63
2023/01/25 10:55:57;;;;;;;9.83;8.80;;;;;;;-0.93;100.00;98308.91;5028538;28;20490;-63
2023/01/25 10:58:33;;;;;;;9.83;8.93;;;;;;;-0.86;100.00;98305.06;4993029;28;20215;-62
2023/01/25 11:01:01;;;;;;;10.00;8.93;;;;;;;-0.83;100.00;98301.47;5011408;28;20284;-63
2023/01/25 11:03:37;;;;;;;9.80;8.80;;;;;;;-0.68;100.00;98302.38;5029234;28;20246;-62
2023/01/25 11:06:07;;;;;;;10.23;9.23;;;;;;;-0.57;100.00;98302.59;5023922;28;20249;-62
2023/01/25 11:08:37;;;;;;;11.23;9.70;;;;;;;-0.62;100.00;98297.66;5032758;28;20266;-62
2023/01/25 11:11:26;;;;;;;8.93;8.10;;;;;;;-0.68;100.00;98289.38;5031196;28;20225;-63
2023/01/25 11:13:56;;;;;;;10.20;9.17;;;;;;;-0.85;100.00;98288.50;4983512;28;20584;-63
2023/01/25 11:16:31;;;;;;;9.33;8.43;;;;;;;-0.70;100.00;98284.22;5026672;28;20298;-63
2023/01/25 11:19:01;;;;;;;10.20;9.30;;;;;;;-0.51;100.00;98276.22;4998061;28;20963;-63
2023/01/25 11:21:31;;;;;;;10.90;9.80;;;;;;;-0.43;100.00;98278.41;5027728;28;20396;-62